This is the latest recevied weather packets stored in our database for station/object N4CRH-13. If no packets are shown the sender has not sent any weather packets the latest 10 day(s).
| Time | Temp. | Humidity | Pressure | Rain* | Wind** | Luminosity | Snow |
|---|---|---|---|---|---|---|---|
| 1778190020 | 15.56° C | 30% | 1293 hPa | 0 mm | - | 143 W/m² | - |
| 1778189716 | 16.11° C | 31% | 1293.1 hPa | 0 mm | - | 159 W/m² | - |
| 1778189414 | 15° C | 32% | 1293.1 hPa | 0 mm | - | 144 W/m² | - |
| 1778189108 | 15° C | 30% | 1293.2 hPa | 0 mm | - | 101 W/m² | - |
| 1778188806 | 16.11° C | 30% | 1293.4 hPa | 0 mm | - | 92 W/m² | - |
| 1778188502 | 17.78° C | 35% | 1293.4 hPa | 0 mm | - | 618 W/m² | - |
| 1778188199 | 17.22° C | 32% | 1293.4 hPa | 0 mm | - | 632 W/m² | - |
| 1778187895 | 17.22° C | 32% | 1293.2 hPa | 0 mm | - | 640 W/m² | - |
| 1778187593 | 16.67° C | 34% | 1293.1 hPa | 0 mm | - | 641 W/m² | - |
| 1778187290 | 16.67° C | 33% | 1293.6 hPa | 0 mm | - | 635 W/m² | - |
| 1778186985 | 15.56° C | 38% | 1293.5 hPa | 0 mm | - | 639 W/m² | - |
| 1778186682 | 16.11° C | 36% | 1293.7 hPa | 0 mm | - | 646 W/m² | - |
| 1778186380 | 15.56° C | 36% | 1293.7 hPa | 0 mm | - | 657 W/m² | - |
| 1778186077 | 15.56° C | 34% | 1294 hPa | 0 mm | - | 665 W/m² | - |
| 1778185774 | 15.56° C | 33% | 1294.1 hPa | 0 mm | - | 673 W/m² | - |
| 1778185471 | 15.56° C | 33% | 1294.2 hPa | 0 mm | - | 681 W/m² | - |
| 1778185166 | 15° C | 35% | 1294.2 hPa | 0 mm | - | 690 W/m² | - |
| 1778184856 | 15.56° C | 39% | 1294.5 hPa | 0 mm | - | 701 W/m² | - |
| 1778184553 | 15° C | 36% | 1294.5 hPa | 0 mm | - | 719 W/m² | - |
| 1778184249 | 15° C | 39% | 1294.5 hPa | 0 mm | - | 759 W/m² | - |
| 1778183945 | 14.44° C | 34% | 1294.5 hPa | 0 mm | - | 832 W/m² | - |
| 1778183643 | 13.89° C | 35% | 1294.6 hPa | 0 mm | - | 401 W/m² | - |
| 1778183339 | 13.89° C | 36% | 1294.5 hPa | 0 mm | - | 317 W/m² | - |
| 1778183036 | 13.89° C | 39% | 1294.7 hPa | 0 mm | - | 339 W/m² | - |
| 1778182732 | 14.44° C | 42% | 1294.7 hPa | 0 mm | - | 401 W/m² | - |
* Rain latest hour (hover to see other rain measurements)
** Current wind speed in m/s (hover to see current wind gust speed)